Time;durP1;ratioP1;P1;durP2;ratioP2;P2;SDS_P1;SDS_P2;PMS_P1;PMS_P2;Temp;Humidity;BMP_temperature;BMP_pressure;BME280_temperature;BME280_humidity;BME280_pressure;Samples;Min_cycle;Max_cycle;Signal;HPM_P1;HPM_P2
2023/08/22 00:00:27;;;;;;;;;;;25.90;62.50;;;;;;5094829;28;20007;-59
2023/08/22 00:02:54;;;;;;;;;;;25.90;62.50;;;;;;5096695;28;19924;-60
2023/08/22 00:05:22;;;;;;;;;;;25.90;62.50;;;;;;5095833;28;19935;-59
2023/08/22 00:07:49;;;;;;;;;;;25.90;62.50;;;;;;5096199;28;19924;-61
2023/08/22 00:10:16;;;;;;;;;;;25.80;62.40;;;;;;5096126;28;20094;-59
2023/08/22 00:12:44;;;;;;;;;;;25.90;62.60;;;;;;5096028;28;19931;-59
2023/08/22 00:15:12;;;;;;;;;;;25.80;62.50;;;;;;5096464;28;20364;-59
2023/08/22 00:17:40;;;;;;;;;;;25.90;62.60;;;;;;5096135;28;19928;-59
2023/08/22 00:20:08;;;;;;;;;;;25.80;62.50;;;;;;5095916;28;19924;-60
2023/08/22 00:22:35;;;;;;;;;;;25.90;62.60;;;;;;5096052;28;19946;-59
2023/08/22 00:25:02;;;;;;;;;;;25.90;62.60;;;;;;5095451;28;19928;-59
2023/08/22 00:27:29;;;;;;;;;;;25.90;62.60;;;;;;5095891;28;19989;-59
2023/08/22 00:29:57;;;;;;;;;;;25.90;62.60;;;;;;5096002;28;19932;-60
2023/08/22 00:32:24;;;;;;;;;;;25.80;62.50;;;;;;5095989;28;19993;-59
2023/08/22 00:34:51;;;;;;;;;;;25.90;62.60;;;;;;5095668;28;20486;-60
2023/08/22 00:37:18;;;;;;;;;;;25.80;62.40;;;;;;5095856;28;19946;-60
2023/08/22 00:39:45;;;;;;;;;;;25.80;62.50;;;;;;5095141;28;19967;-59
2023/08/22 00:42:12;;;;;;;;;;;25.90;62.50;;;;;;5095443;28;20348;-59
2023/08/22 00:44:39;;;;;;;;;;;25.90;62.50;;;;;;5095568;28;20018;-60
2023/08/22 00:47:06;;;;;;;;;;;25.90;62.50;;;;;;5095510;28;20344;-59
2023/08/22 00:49:34;;;;;;;;;;;25.90;62.40;;;;;;5095111;28;19978;-59
2023/08/22 00:52:01;;;;;;;;;;;25.80;62.40;;;;;;5095378;28;20466;-60
2023/08/22 00:54:28;;;;;;;;;;;25.90;62.40;;;;;;5095216;28;19924;-59
2023/08/22 00:56:56;;;;;;;;;;;25.90;62.40;;;;;;5095168;28;19967;-59
2023/08/22 00:59:24;;;;;;;;;;;25.90;62.40;;;;;;5095062;28;20459;-59
2023/08/22 01:01:51;;;;;;;;;;;25.90;62.40;;;;;;5095085;28;20031;-60
2023/08/22 01:04:19;;;;;;;;;;;25.90;62.30;;;;;;5095374;28;20015;-59
2023/08/22 01:07:06;;;;;;;;;;;25.90;62.40;;;;;;5095132;28;19924;-60
2023/08/22 01:09:45;;;;;;;;;;;25.90;62.30;;;;;;5094791;28;19924;-59
2023/08/22 01:12:19;;;;;;;;;;;25.90;62.30;;;;;;5094390;28;20112;-60
2023/08/22 01:14:49;;;;;;;;;;;25.90;62.30;;;;;;5094678;28;19930;-59
2023/08/22 01:17:17;;;;;;;;;;;25.90;62.30;;;;;;5094917;28;20423;-59
2023/08/22 01:19:44;;;;;;;;;;;25.90;62.30;;;;;;5094849;28;19946;-59
2023/08/22 01:22:12;;;;;;;;;;;25.90;62.30;;;;;;5095203;28;20360;-60
2023/08/22 01:24:39;;;;;;;;;;;25.90;62.30;;;;;;5094553;28;19928;-59
2023/08/22 01:27:08;;;;;;;;;;;25.90;62.30;;;;;;5094929;28;19954;-59
2023/08/22 01:29:40;;;;;;;;;;;25.90;62.30;;;;;;5094170;28;19975;-59
2023/08/22 01:32:16;;;;;;;;;;;25.90;62.30;;;;;;5094895;28;20014;-59
2023/08/22 01:34:44;;;;;;;;;;;25.90;62.40;;;;;;5094754;28;19976;-59
2023/08/22 01:37:11;;;;;;;;;;;25.80;62.30;;;;;;5094697;28;19924;-60
2023/08/22 01:39:39;;;;;;;;;;;25.80;62.30;;;;;;5093431;28;19971;-59
2023/08/22 01:42:06;;;;;;;;;;;25.80;62.30;;;;;;5093565;28;19959;-60
2023/08/22 01:44:36;;;;;;;;;;;25.80;62.30;;;;;;5093482;28;19924;-60
2023/08/22 01:47:03;;;;;;;;;;;25.80;62.40;;;;;;5094333;28;19938;-59
2023/08/22 01:49:30;;;;;;;;;;;25.80;62.40;;;;;;5094135;28;20429;-59
2023/08/22 01:51:58;;;;;;;;;;;25.80;62.40;;;;;;5094626;28;20336;-59
2023/08/22 01:54:25;;;;;;;;;;;25.80;62.40;;;;;;5094481;28;19968;-60
2023/08/22 01:56:52;;;;;;;;;;;25.80;62.40;;;;;;5094598;28;19928;-59
2023/08/22 01:59:19;;;;;;;;;;;25.80;62.40;;;;;;5093891;28;20372;-59
2023/08/22 02:01:46;;;;;;;;;;;25.80;62.40;;;;;;5093038;28;19970;-60
2023/08/22 02:04:13;;;;;;;;;;;25.80;62.40;;;;;;5093948;28;19928;-60
2023/08/22 02:06:40;;;;;;;;;;;25.80;62.40;;;;;;5093851;28;20027;-59
2023/08/22 02:09:07;;;;;;;;;;;25.80;62.40;;;;;;5093807;28;20011;-59
2023/08/22 02:11:34;;;;;;;;;;;25.70;62.40;;;;;;5093722;28;19931;-60
2023/08/22 02:14:01;;;;;;;;;;;25.80;62.40;;;;;;5094181;28;19924;-59
2023/08/22 02:16:28;;;;;;;;;;;25.80;62.40;;;;;;5093862;28;19978;-59
2023/08/22 02:18:55;;;;;;;;;;;25.80;62.50;;;;;;5093735;28;19967;-59
2023/08/22 02:21:22;;;;;;;;;;;25.80;62.50;;;;;;5093199;28;19981;-60
2023/08/22 02:23:49;;;;;;;;;;;25.80;62.50;;;;;;5092723;28;19928;-59
2023/08/22 02:26:16;;;;;;;;;;;25.80;62.50;;;;;;5093780;28;19924;-59
2023/08/22 02:28:43;;;;;;;;;;;25.80;62.50;;;;;;5093907;28;19925;-59
2023/08/22 02:31:10;;;;;;;;;;;25.70;62.40;;;;;;5093404;28;20002;-59
2023/08/22 02:33:37;;;;;;;;;;;25.70;62.40;;;;;;5093698;28;20360;-59
2023/08/22 02:36:04;;;;;;;;;;;25.70;62.40;;;;;;5093587;28;19924;-59
2023/08/22 02:38:31;;;;;;;;;;;25.70;62.40;;;;;;5093509;28;19970;-59
2023/08/22 02:40:58;;;;;;;;;;;25.70;62.40;;;;;;5092143;28;19974;-59
2023/08/22 02:43:25;;;;;;;;;;;25.70;62.40;;;;;;5093576;28;20353;-59
2023/08/22 02:45:52;;;;;;;;;;;25.70;62.40;;;;;;5093838;28;19932;-59
2023/08/22 02:48:19;;;;;;;;;;;25.70;62.50;;;;;;5093079;28;19924;-60
2023/08/22 02:50:48;;;;;;;;;;;25.70;62.40;;;;;;5092673;28;20324;-59
2023/08/22 02:53:15;;;;;;;;;;;25.70;62.40;;;;;;5093285;28;20407;-59
2023/08/22 02:55:46;;;;;;;;;;;25.70;62.40;;;;;;5093471;28;19935;-59
2023/08/22 02:58:13;;;;;;;;;;;25.70;62.40;;;;;;5093364;28;19963;-59
2023/08/22 03:00:40;;;;;;;;;;;25.70;62.50;;;;;;5093126;28;20015;-59
2023/08/22 03:03:07;;;;;;;;;;;25.70;62.50;;;;;;5092968;28;19977;-59
2023/08/22 03:05:34;;;;;;;;;;;25.70;62.50;;;;;;5092756;28;19990;-59
2023/08/22 03:08:01;;;;;;;;;;;25.70;62.50;;;;;;5093284;28;20003;-59
2023/08/22 03:10:28;;;;;;;;;;;25.70;62.50;;;;;;5093155;28;20442;-59
2023/08/22 03:12:55;;;;;;;;;;;25.70;62.40;;;;;;5092424;28;19974;-59
2023/08/22 03:15:22;;;;;;;;;;;25.70;62.40;;;;;;5093142;28;20023;-60
2023/08/22 03:17:51;;;;;;;;;;;25.70;62.40;;;;;;5092438;28;21366;-59
2023/08/22 03:20:18;;;;;;;;;;;25.70;62.40;;;;;;5092678;28;19924;-59
2023/08/22 03:22:45;;;;;;;;;;;25.70;62.30;;;;;;5092633;28;20014;-59
2023/08/22 03:25:12;;;;;;;;;;;25.70;62.30;;;;;;5092710;28;20351;-59
2023/08/22 03:27:39;;;;;;;;;;;25.70;62.30;;;;;;5092216;28;19936;-59
2023/08/22 03:30:06;;;;;;;;;;;25.70;62.30;;;;;;5092244;28;19924;-59
2023/08/22 03:32:34;;;;;;;;;;;25.70;62.30;;;;;;5091541;28;19928;-59
2023/08/22 03:35:00;;;;;;;;;;;25.70;62.20;;;;;;5084174;28;19924;-59
2023/08/22 03:37:27;;;;;;;;;;;25.70;62.30;;;;;;5078446;28;19928;-60
2023/08/22 03:39:54;;;;;;;;;;;25.70;62.20;;;;;;5076099;28;20455;-59
2023/08/22 03:42:21;;;;;;;;;;;25.80;62.30;;;;;;5091698;28;19924;-59
2023/08/22 03:44:48;;;;;;;;;;;25.80;62.30;;;;;;5096064;28;19924;-59
2023/08/22 03:47:15;;;;;;;;;;;25.70;62.20;;;;;;5103662;28;19924;-59
2023/08/22 03:49:42;;;;;;;;;;;25.80;62.30;;;;;;5116783;28;20026;-59
2023/08/22 03:52:09;;;;;;;;;;;25.80;62.20;;;;;;5116727;28;19930;-60
2023/08/22 03:54:36;;;;;;;;;;;25.70;62.10;;;;;;5116702;28;19924;-59
2023/08/22 03:57:03;;;;;;;;;;;25.80;62.20;;;;;;5116968;28;19970;-59
2023/08/22 03:59:30;;;;;;;;;;;25.70;62.10;;;;;;5115791;28;19924;-59
2023/08/22 04:01:57;;;;;;;;;;;25.70;62.20;;;;;;5115905;28;20026;-59
2023/08/22 04:04:24;;;;;;;;;;;25.70;62.20;;;;;;5116853;28;20002;-59
2023/08/22 04:06:51;;;;;;;;;;;25.70;62.20;;;;;;5116966;28;19976;-59
2023/08/22 04:09:18;;;;;;;;;;;25.70;62.20;;;;;;5116254;28;19924;-59
2023/08/22 04:11:45;;;;;;;;;;;25.70;62.20;;;;;;5116443;28;20431;-60
2023/08/22 04:14:11;;;;;;;;;;;25.80;62.20;;;;;;5115546;28;19974;-59
2023/08/22 04:16:38;;;;;;;;;;;25.70;62.20;;;;;;5115876;28;20014;-59
2023/08/22 04:19:05;;;;;;;;;;;25.70;62.10;;;;;;5112045;28;19992;-59
2023/08/22 04:21:32;;;;;;;;;;;25.70;62.10;;;;;;5085280;28;20590;-59
2023/08/22 04:23:59;;;;;;;;;;;25.70;62.10;;;;;;5078527;28;20354;-59
2023/08/22 04:26:26;;;;;;;;;;;25.80;62.10;;;;;;5084977;28;20407;-59
2023/08/22 04:28:53;;;;;;;;;;;25.70;62.00;;;;;;5085733;28;20414;-59
2023/08/22 04:31:20;;;;;;;;;;;25.80;62.10;;;;;;5083383;28;20311;-59
2023/08/22 04:33:48;;;;;;;;;;;25.80;62.00;;;;;;5084297;28;20025;-59
2023/08/22 04:36:15;;;;;;;;;;;25.80;61.90;;;;;;5085458;28;20014;-59
2023/08/22 04:38:42;;;;;;;;;;;25.70;62.00;;;;;;5084988;28;19972;-59
2023/08/22 04:41:09;;;;;;;;;;;25.70;62.10;;;;;;5088466;28;19924;-59
2023/08/22 04:43:35;;;;;;;;;;;25.60;62.20;;;;;;5094492;28;19982;-60
2023/08/22 04:46:02;;;;;;;;;;;25.40;60.90;;;;;;5095036;28;19980;-59
2023/08/22 04:48:29;;;;;;;;;;;25.20;58.40;;;;;;5094824;28;19985;-59
2023/08/22 04:50:56;;;;;;;;;;;24.90;56.50;;;;;;5083503;28;20396;-60
2023/08/22 04:53:24;;;;;;;;;;;24.70;55.50;;;;;;5076148;28;20023;-59
2023/08/22 04:55:51;;;;;;;;;;;24.50;54.10;;;;;;5075296;28;19968;-59
2023/08/22 04:58:18;;;;;;;;;;;24.10;53.10;;;;;;5082565;28;20284;-59
2023/08/22 05:00:45;;;;;;;;;;;23.90;53.20;;;;;;5094051;28;19924;-59
2023/08/22 05:03:14;;;;;;;;;;;23.60;52.20;;;;;;5094337;28;20030;-59
2023/08/22 05:05:42;;;;;;;;;;;23.30;51.70;;;;;;5094460;28;19924;-59
2023/08/22 05:08:09;;;;;;;;;;;23.10;53.10;;;;;;5094058;28;19924;-59
2023/08/22 05:10:36;;;;;;;;;;;22.80;50.90;;;;;;5092908;28;19964;-59
2023/08/22 05:13:03;;;;;;;;;;;22.60;52.80;;;;;;5088208;28;19924;-59
2023/08/22 05:15:29;;;;;;;;;;;22.30;52.20;;;;;;5088911;28;20292;-59
2023/08/22 05:17:56;;;;;;;;;;;22.10;51.50;;;;;;5076975;28;19924;-59
2023/08/22 05:20:23;;;;;;;;;;;21.90;51.00;;;;;;5083684;28;20391;-59
2023/08/22 05:22:50;;;;;;;;;;;21.60;52.60;;;;;;5081093;28;19987;-59
2023/08/22 05:25:17;;;;;;;;;;;21.40;53.00;;;;;;5085050;28;19983;-58
2023/08/22 05:27:44;;;;;;;;;;;21.30;53.20;;;;;;5079561;28;19977;-58
2023/08/22 05:30:12;;;;;;;;;;;21.20;54.60;;;;;;5080676;28;19982;-59
2023/08/22 05:32:40;;;;;;;;;;;21.00;54.10;;;;;;5076168;28;20007;-58
2023/08/22 05:35:07;;;;;;;;;;;20.90;55.40;;;;;;5081797;28;20017;-58
2023/08/22 05:37:34;;;;;;;;;;;20.90;54.80;;;;;;5075573;28;19928;-58
2023/08/22 05:40:02;;;;;;;;;;;20.80;54.50;;;;;;5073844;28;19985;-58
2023/08/22 05:42:30;;;;;;;;;;;20.70;55.40;;;;;;5075540;28;20443;-58
2023/08/22 05:44:57;;;;;;;;;;;20.70;55.50;;;;;;5070842;28;19931;-58
2023/08/22 05:47:24;;;;;;;;;;;20.60;55.30;;;;;;5076934;28;19979;-58
2023/08/22 05:49:51;;;;;;;;;;;20.60;56.90;;;;;;5072499;28;19928;-58
2023/08/22 05:52:19;;;;;;;;;;;20.50;59.10;;;;;;5075710;28;19955;-58
2023/08/22 05:54:46;;;;;;;;;;;20.40;59.60;;;;;;5078794;28;19932;-59
2023/08/22 05:57:13;;;;;;;;;;;20.30;61.10;;;;;;5076728;28;20027;-59
2023/08/22 05:59:40;;;;;;;;;;;20.20;62.90;;;;;;5076155;28;19924;-58
2023/08/22 06:02:07;;;;;;;;;;;20.10;63.40;;;;;;5074836;28;20383;-59
2023/08/22 06:04:34;;;;;;;;;;;20.00;62.40;;;;;;5073229;28;19975;-59
2023/08/22 06:07:02;;;;;;;;;;;20.00;61.90;;;;;;5073579;28;19934;-58
2023/08/22 06:09:29;;;;;;;;;;;20.00;61.10;;;;;;5077647;28;22505;-58
2023/08/22 06:11:56;;;;;;;;;;;20.00;63.90;;;;;;5077584;28;19924;-59
2023/08/22 06:14:23;;;;;;;;;;;20.00;62.50;;;;;;5057982;28;19924;-58
2023/08/22 06:16:50;;;;;;;;;;;20.00;64.90;;;;;;5072345;28;20392;-59
2023/08/22 06:19:17;;;;;;;;;;;20.00;61.50;;;;;;5071623;28;19990;-59
2023/08/22 06:21:44;;;;;;;;;;;20.00;62.70;;;;;;5075561;28;19985;-59
2023/08/22 06:24:11;;;;;;;;;;;20.10;62.50;;;;;;5077343;28;19928;-59
2023/08/22 06:26:38;;;;;;;;;;;20.10;61.00;;;;;;5075350;28;19975;-59
2023/08/22 06:29:05;;;;;;;;;;;20.10;60.70;;;;;;5078506;28;20018;-59
2023/08/22 06:31:32;;;;;;;;;;;20.10;61.60;;;;;;5069123;28;20288;-58
2023/08/22 06:33:59;;;;;;;;;;;20.20;62.00;;;;;;5073143;28;20344;-58
2023/08/22 06:36:26;;;;;;;;;;;20.20;63.30;;;;;;5071565;28;19930;-59
2023/08/22 06:38:53;;;;;;;;;;;20.20;64.00;;;;;;5072304;28;19928;-59
2023/08/22 06:41:20;;;;;;;;;;;20.10;63.30;;;;;;5072869;28;20019;-59
2023/08/22 06:43:48;;;;;;;;;;;20.10;63.60;;;;;;5075713;28;20376;-58
2023/08/22 06:46:16;;;;;;;;;;;20.10;63.00;;;;;;5071734;28;19975;-62
2023/08/22 06:48:43;;;;;;;;;;;20.10;63.60;;;;;;5070294;28;19924;-62
2023/08/22 06:51:10;;;;;;;;;;;20.00;63.70;;;;;;5071706;28;19925;-60
2023/08/22 06:53:37;;;;;;;;;;;20.00;63.80;;;;;;5071530;28;20380;-60
2023/08/22 06:56:05;;;;;;;;;;;20.00;63.90;;;;;;5074614;28;19928;-59
2023/08/22 06:58:32;;;;;;;;;;;20.00;63.50;;;;;;5076480;28;19928;-60
2023/08/22 07:00:59;;;;;;;;;;;20.00;65.40;;;;;;5071429;28;20336;-62
2023/08/22 07:03:26;;;;;;;;;;;20.00;64.80;;;;;;5069896;28;19932;-60
2023/08/22 07:05:53;;;;;;;;;;;20.00;65.50;;;;;;5081503;28;19943;-59
2023/08/22 07:08:20;;;;;;;;;;;20.00;65.70;;;;;;5077259;28;19928;-60
2023/08/22 07:10:47;;;;;;;;;;;20.00;64.90;;;;;;5075594;28;19928;-60
2023/08/22 07:13:15;;;;;;;;;;;20.10;64.80;;;;;;5075175;28;19925;-60
2023/08/22 07:15:43;;;;;;;;;;;20.10;65.10;;;;;;5078070;28;19959;-59
2023/08/22 07:18:11;;;;;;;;;;;20.10;65.10;;;;;;5080950;28;20388;-60
2023/08/22 07:20:38;;;;;;;;;;;20.20;65.80;;;;;;5076909;28;19971;-60
2023/08/22 07:23:05;;;;;;;;;;;20.20;66.10;;;;;;5080342;28;20325;-59
2023/08/22 07:25:32;;;;;;;;;;;20.30;65.40;;;;;;5082380;28;19924;-60
2023/08/22 07:27:59;;;;;;;;;;;20.30;65.70;;;;;;5080767;28;19939;-60
2023/08/22 07:30:27;;;;;;;;;;;20.40;65.20;;;;;;5082007;28;20027;-60
2023/08/22 07:32:54;;;;;;;;;;;20.40;65.60;;;;;;5079103;28;20467;-59
2023/08/22 07:35:21;;;;;;;;;;;20.40;65.60;;;;;;5080066;28;19927;-60
2023/08/22 07:37:48;;;;;;;;;;;20.50;65.90;;;;;;5078359;28;20330;-60
2023/08/22 07:40:16;;;;;;;;;;;20.60;65.90;;;;;;5074812;28;20380;-59
2023/08/22 07:42:43;;;;;;;;;;;20.60;65.40;;;;;;5076218;28;19924;-60
2023/08/22 07:45:10;;;;;;;;;;;20.70;66.00;;;;;;5076807;28;19928;-60
2023/08/22 07:47:37;;;;;;;;;;;20.70;66.60;;;;;;5081124;28;19929;-64
2023/08/22 07:50:05;;;;;;;;;;;20.70;65.60;;;;;;5074578;28;19932;-62
2023/08/22 07:52:32;;;;;;;;;;;20.70;66.60;;;;;;5075942;28;19963;-60
2023/08/22 07:54:59;;;;;;;;;;;20.70;65.50;;;;;;5072834;28;19936;-61
2023/08/22 07:57:26;;;;;;;;;;;20.80;66.30;;;;;;5072102;28;19932;-62
2023/08/22 07:59:54;;;;;;;;;;;20.80;63.90;;;;;;5069624;28;20364;-61
2023/08/22 08:02:20;;;;;;;;;;;20.90;64.30;;;;;;5077409;28;19928;-60
2023/08/22 08:04:48;;;;;;;;;;;20.90;64.70;;;;;;5076924;28;19936;-63
2023/08/22 08:07:16;;;;;;;;;;;20.90;64.30;;;;;;5070586;28;19930;-61
2023/08/22 08:09:43;;;;;;;;;;;21.00;65.60;;;;;;5076901;28;20013;-61
2023/08/22 08:12:13;;;;;;;;;;;21.00;65.10;;;;;;5074817;28;20316;-61
2023/08/22 08:14:43;;;;;;;;;;;21.00;65.20;;;;;;5077353;28;19950;-60
2023/08/22 08:17:10;;;;;;;;;;;21.10;64.00;;;;;;5077044;28;19924;-60
2023/08/22 08:19:37;;;;;;;;;;;21.10;64.70;;;;;;5079097;28;19939;-60
2023/08/22 08:22:04;;;;;;;;;;;21.10;64.40;;;;;;5075444;28;19979;-60
2023/08/22 08:24:31;;;;;;;;;;;21.20;65.20;;;;;;5074682;28;19986;-60
2023/08/22 08:26:58;;;;;;;;;;;21.20;64.20;;;;;;5057854;28;20342;-61
2023/08/22 08:29:26;;;;;;;;;;;21.20;62.20;;;;;;5073721;28;19986;-60
2023/08/22 08:31:56;;;;;;;;;;;21.20;65.00;;;;;;5079762;28;19990;-60
2023/08/22 08:34:23;;;;;;;;;;;21.30;65.50;;;;;;5075575;28;19956;-61
2023/08/22 08:36:50;;;;;;;;;;;21.30;64.70;;;;;;5074381;28;19956;-61
2023/08/22 08:39:20;;;;;;;;;;;21.30;63.40;;;;;;5073970;28;19963;-62
2023/08/22 08:42:07;;;;;;;;;;;21.30;63.30;;;;;;5076259;28;21141;-62
2023/08/22 08:44:34;;;;;;;;;;;21.30;63.00;;;;;;5075337;28;19958;-61
2023/08/22 08:47:02;;;;;;;;;;;21.40;63.60;;;;;;5079613;28;20015;-61
2023/08/22 08:49:31;;;;;;;;;;;21.40;65.00;;;;;;5079529;28;19924;-61
2023/08/22 08:52:05;;;;;;;;;;;21.40;63.70;;;;;;5077460;28;20416;-61
2023/08/22 08:54:32;;;;;;;;;;;21.40;64.60;;;;;;5075246;28;19928;-61
2023/08/22 08:56:59;;;;;;;;;;;21.40;63.80;;;;;;5078514;28;19925;-61
2023/08/22 08:59:27;;;;;;;;;;;21.40;64.60;;;;;;5077260;28;19947;-62
2023/08/22 09:01:54;;;;;;;;;;;21.40;63.60;;;;;;5076826;28;19924;-61
2023/08/22 09:04:21;;;;;;;;;;;21.40;64.30;;;;;;5070242;28;20659;-61
2023/08/22 09:06:48;;;;;;;;;;;21.40;64.30;;;;;;5077970;28;20020;-60
2023/08/22 09:09:15;;;;;;;;;;;21.40;63.90;;;;;;5070493;28;20318;-61
2023/08/22 09:11:43;;;;;;;;;;;21.40;64.00;;;;;;5076799;28;20035;-60
2023/08/22 09:14:22;;;;;;;;;;;21.40;63.70;;;;;;5075648;28;19942;-61
2023/08/22 09:16:49;;;;;;;;;;;21.50;64.60;;;;;;5075995;28;19932;-60
2023/08/22 09:19:16;;;;;;;;;;;21.40;63.80;;;;;;5066638;28;19943;-60
2023/08/22 09:21:57;;;;;;;;;;;21.40;63.00;;;;;;5073132;28;19936;-61
2023/08/22 09:24:25;;;;;;;;;;;21.40;64.10;;;;;;5076758;28;20315;-60
2023/08/22 09:26:53;;;;;;;;;;;21.40;62.00;;;;;;5072560;28;20048;-60
2023/08/22 09:29:30;;;;;;;;;;;21.40;63.90;;;;;;5072038;28;19924;-60
2023/08/22 09:32:04;;;;;;;;;;;21.40;63.70;;;;;;5072245;28;19932;-60
2023/08/22 09:34:32;;;;;;;;;;;21.40;64.00;;;;;;5079042;28;20023;-60
2023/08/22 09:37:00;;;;;;;;;;;21.40;62.70;;;;;;5073968;28;20015;-61
2023/08/22 09:39:29;;;;;;;;;;;21.40;63.70;;;;;;5074458;28;19932;-60
2023/08/22 09:41:57;;;;;;;;;;;21.40;63.60;;;;;;5071284;28;20288;-60
2023/08/22 09:44:25;;;;;;;;;;;21.50;64.00;;;;;;5069458;28;20034;-61
2023/08/22 09:46:53;;;;;;;;;;;21.50;63.20;;;;;;5077042;28;19975;-61
2023/08/22 09:49:21;;;;;;;;;;;21.40;63.90;;;;;;5072632;28;20396;-60
2023/08/22 09:51:49;;;;;;;;;;;21.40;63.50;;;;;;5074554;28;19928;-61
2023/08/22 09:54:18;;;;;;;;;;;21.50;62.90;;;;;;5077488;28;19976;-60
2023/08/22 09:56:45;;;;;;;;;;;21.40;63.10;;;;;;5084491;28;19986;-60
2023/08/22 09:59:16;;;;;;;;;;;21.40;62.90;;;;;;5075049;28;19925;-60
2023/08/22 10:01:43;;;;;;;;;;;21.40;62.90;;;;;;5081852;28;19932;-60
2023/08/22 10:04:10;;;;;;;;;;;21.30;60.10;;;;;;5078146;28;20455;-63
2023/08/22 10:06:39;;;;;;;;;;;21.30;62.30;;;;;;5081366;28;19974;-60
2023/08/22 10:09:13;;;;;;;;;;;21.30;62.40;;;;;;5084174;28;20451;-60
2023/08/22 10:11:42;;;;;;;;;;;21.30;63.10;;;;;;5084157;28;19950;-60
2023/08/22 10:14:14;;;;;;;;;;;21.30;62.30;;;;;;5075015;28;19929;-60
2023/08/22 10:16:44;;;;;;;;;;;21.30;61.90;;;;;;5072959;28;20396;-59
2023/08/22 10:19:11;;;;;;;;;;;21.20;62.70;;;;;;5078180;28;20015;-59
2023/08/22 10:21:43;;;;;;;;;;;21.20;62.10;;;;;;5084293;28;20023;-64
2023/08/22 10:24:30;;;;;;;;;;;21.20;61.80;;;;;;5070257;28;19993;-61
2023/08/22 10:27:00;;;;;;;;;;;21.10;62.10;;;;;;5079623;28;19928;-64
2023/08/22 10:29:34;;;;;;;;;;;21.20;62.30;;;;;;5074439;28;19928;-63
2023/08/22 10:32:22;;;;;;;;;;;21.20;62.10;;;;;;5070812;28;20300;-62
2023/08/22 10:35:01;;;;;;;;;;;21.20;62.40;;;;;;5074507;28;19936;-61
2023/08/22 10:37:28;;;;;;;;;;;21.20;63.60;;;;;;5085055;28;19932;-61
2023/08/22 10:40:02;;;;;;;;;;;21.30;62.50;;;;;;5077915;28;19975;-63
2023/08/22 10:42:29;;;;;;;;;;;21.30;61.30;;;;;;5073492;28;19932;-64
2023/08/22 10:44:57;;;;;;;;;;;21.30;62.80;;;;;;5077998;28;19930;-63
2023/08/22 10:47:26;;;;;;;;;;;21.30;62.50;;;;;;5076844;28;20392;-62
2023/08/22 10:49:57;;;;;;;;;;;21.40;62.10;;;;;;5071353;28;20732;-62
2023/08/22 10:52:41;;;;;;;;;;;21.40;61.90;;;;;;5074468;28;19940;-64
2023/08/22 10:55:13;;;;;;;;;;;21.40;62.90;;;;;;5078933;28;19982;-66
2023/08/22 10:57:41;;;;;;;;;;;21.40;62.50;;;;;;5078115;28;19950;-65
2023/08/22 11:00:22;;;;;;;;;;;21.40;62.50;;;;;;5071379;28;19951;-61
2023/08/22 11:02:51;;;;;;;;;;;21.40;62.20;;;;;;5076005;28;19924;-59
2023/08/22 11:05:18;;;;;;;;;;;21.30;62.00;;;;;;5074837;28;19956;-66
2023/08/22 11:07:46;;;;;;;;;;;21.30;60.20;;;;;;5074239;28;20342;-66
2023/08/22 11:10:16;;;;;;;;;;;21.30;62.60;;;;;;5068435;28;20431;-61
2023/08/22 11:12:46;;;;;;;;;;;21.30;62.30;;;;;;5076501;28;19928;-63
2023/08/22 11:15:14;;;;;;;;;;;21.40;60.90;;;;;;5077721;28;20304;-61
2023/08/22 11:17:43;;;;;;;;;;;21.40;62.50;;;;;;5074004;28;19952;-60
2023/08/22 11:20:11;;;;;;;;;;;21.40;62.40;;;;;;5071466;28;19954;-59
2023/08/22 11:22:39;;;;;;;;;;;21.40;61.00;;;;;;5076885;28;19929;-61
2023/08/22 11:25:06;;;;;;;;;;;21.50;61.60;;;;;;5075178;28;19978;-59
2023/08/22 11:27:36;;;;;;;;;;;21.50;62.90;;;;;;5075857;28;19924;-60
2023/08/22 11:30:03;;;;;;;;;;;21.50;62.20;;;;;;5078737;28;19989;-59
2023/08/22 11:32:34;;;;;;;;;;;21.50;61.50;;;;;;5075758;28;19966;-59
2023/08/22 11:35:03;;;;;;;;;;;21.50;62.30;;;;;;5069724;28;20292;-60
2023/08/22 11:37:31;;;;;;;;;;;21.50;62.30;;;;;;5071799;28;19986;-59
2023/08/22 11:39:59;;;;;;;;;;;21.60;62.50;;;;;;5077811;28;19961;-59
2023/08/22 11:42:29;;;;;;;;;;;21.60;61.90;;;;;;5073889;28;19924;-60
2023/08/22 11:45:08;;;;;;;;;;;21.60;62.10;;;;;;5067867;28;20006;-60
2023/08/22 11:47:39;;;;;;;;;;;21.60;60.90;;;;;;5073782;28;19964;-61
2023/08/22 11:50:15;;;;;;;;;;;21.60;61.10;;;;;;5076257;28;20384;-61
2023/08/22 11:52:49;;;;;;;;;;;21.60;61.40;;;;;;5071202;28;19925;-61
2023/08/22 11:55:22;;;;;;;;;;;21.70;62.00;;;;;;5068226;28;22704;-61
2023/08/22 11:57:50;;;;;;;;;;;21.70;62.30;;;;;;5078802;28;19933;-61
2023/08/22 12:00:18;;;;;;;;;;;21.70;60.60;;;;;;5082896;28;20015;-61
2023/08/22 12:02:49;;;;;;;;;;;21.70;61.50;;;;;;5084704;28;19924;-61
2023/08/22 12:05:34;;;;;;;;;;;21.80;62.10;;;;;;5082043;28;19931;-60
2023/08/22 12:08:20;;;;;;;;;;;21.80;60.60;;;;;;5083779;28;19931;-59
2023/08/22 12:10:49;;;;;;;;;;;21.80;60.80;;;;;;5087090;28;20330;-60
2023/08/22 12:13:17;;;;;;;;;;;21.80;61.70;;;;;;5084054;28;19989;-61
2023/08/22 12:15:44;;;;;;;;;;;21.80;61.40;;;;;;5076079;28;20013;-60
2023/08/22 12:18:11;;;;;;;;;;;21.90;62.10;;;;;;5082079;28;20331;-61
2023/08/22 12:20:40;;;;;;;;;;;21.90;62.70;;;;;;5080852;28;19977;-61
2023/08/22 12:23:09;;;;;;;;;;;21.90;61.80;;;;;;5079033;28;19939;-60
2023/08/22 12:25:37;;;;;;;;;;;21.90;62.30;;;;;;5077949;28;19934;-61
2023/08/22 12:28:04;;;;;;;;;;;21.90;60.90;;;;;;5079269;28;20447;-60
2023/08/22 12:30:35;;;;;;;;;;;21.90;60.60;;;;;;5075542;28;20317;-60
2023/08/22 12:33:03;;;;;;;;;;;22.00;61.70;;;;;;5078891;28;19960;-60
2023/08/22 12:35:34;;;;;;;;;;;22.00;62.00;;;;;;5075508;28;19990;-60
2023/08/22 12:38:01;;;;;;;;;;;22.00;60.90;;;;;;5077773;28;19924;-60
2023/08/22 12:40:28;;;;;;;;;;;22.00;61.00;;;;;;5079981;28;19978;-60
2023/08/22 12:42:55;;;;;;;;;;;22.00;61.80;;;;;;5080219;28;19928;-61
2023/08/22 12:45:23;;;;;;;;;;;22.00;61.70;;;;;;5071498;28;20334;-60
2023/08/22 12:47:50;;;;;;;;;;;22.00;60.00;;;;;;5081310;28;19935;-60
2023/08/22 12:50:17;;;;;;;;;;;22.00;62.20;;;;;;5078652;28;19923;-60
2023/08/22 12:52:44;;;;;;;;;;;22.00;59.80;;;;;;5087901;28;19932;-59
2023/08/22 12:55:11;;;;;;;;;;;21.90;60.40;;;;;;5080887;28;19925;-60
2023/08/22 12:57:40;;;;;;;;;;;21.90;60.30;;;;;;5078740;28;19939;-61
2023/08/22 13:00:08;;;;;;;;;;;22.00;59.70;;;;;;5075470;28;19946;-60
2023/08/22 13:02:36;;;;;;;;;;;21.90;61.30;;;;;;5077349;28;19971;-60
2023/08/22 13:05:04;;;;;;;;;;;22.00;60.60;;;;;;5074103;28;20323;-60
2023/08/22 13:07:31;;;;;;;;;;;21.90;60.90;;;;;;5074143;28;19925;-60
2023/08/22 13:09:58;;;;;;;;;;;21.90;60.90;;;;;;5076113;28;20007;-60
2023/08/22 13:12:25;;;;;;;;;;;21.90;61.40;;;;;;5076374;28;20380;-60
2023/08/22 13:14:52;;;;;;;;;;;21.90;60.90;;;;;;5080785;28;19932;-60
2023/08/22 13:17:19;;;;;;;;;;;21.90;60.50;;;;;;5080320;28;19938;-60
2023/08/22 13:19:47;;;;;;;;;;;21.90;60.40;;;;;;5069884;28;20375;-60
2023/08/22 13:22:14;;;;;;;;;;;21.90;59.70;;;;;;5077092;28;19964;-60
2023/08/22 13:24:42;;;;;;;;;;;22.00;59.80;;;;;;5072393;28;19928;-60
2023/08/22 13:27:09;;;;;;;;;;;21.90;60.90;;;;;;5077117;28;19974;-61
2023/08/22 13:29:36;;;;;;;;;;;21.90;60.20;;;;;;5077408;28;20137;-61
2023/08/22 13:32:04;;;;;;;;;;;21.90;61.20;;;;;;5076619;28;19970;-60
2023/08/22 13:34:31;;;;;;;;;;;21.90;60.50;;;;;;5079540;28;19924;-61
2023/08/22 13:36:58;;;;;;;;;;;21.90;59.50;;;;;;5078771;28;20023;-60
2023/08/22 13:39:25;;;;;;;;;;;21.90;61.30;;;;;;5078630;28;19928;-62
2023/08/22 13:41:52;;;;;;;;;;;21.90;60.80;;;;;;5070031;28;19953;-61
2023/08/22 13:44:20;;;;;;;;;;;21.90;60.80;;;;;;5075550;28;20430;-61
2023/08/22 13:46:47;;;;;;;;;;;21.90;59.90;;;;;;5075392;28;19994;-60
2023/08/22 13:49:14;;;;;;;;;;;21.90;59.00;;;;;;5074482;28;20404;-61
2023/08/22 13:51:41;;;;;;;;;;;21.90;60.30;;;;;;5070832;28;20019;-60
2023/08/22 13:54:08;;;;;;;;;;;21.90;60.90;;;;;;5081678;28;19947;-62
2023/08/22 13:56:36;;;;;;;;;;;21.90;59.50;;;;;;5076673;28;19928;-61
2023/08/22 13:59:03;;;;;;;;;;;21.90;60.00;;;;;;5071611;28;19932;-60
2023/08/22 14:01:30;;;;;;;;;;;21.90;60.00;;;;;;5073390;28;19935;-60
2023/08/22 14:03:59;;;;;;;;;;;21.90;58.80;;;;;;5078514;28;20091;-60
2023/08/22 14:06:26;;;;;;;;;;;22.00;68.00;;;;;;5071388;28;19924;-61
2023/08/22 14:08:52;;;;;;;;;;;22.30;74.10;;;;;;5073564;28;19944;-61
2023/08/22 14:11:19;;;;;;;;;;;22.50;76.00;;;;;;5077448;28;19932;-61
2023/08/22 14:13:48;;;;;;;;;;;22.80;76.70;;;;;;5077991;28;19932;-61
2023/08/22 14:16:15;;;;;;;;;;;23.10;76.70;;;;;;5079858;28;19932;-61
2023/08/22 14:18:42;;;;;;;;;;;23.40;76.50;;;;;;5075121;28;20351;-60
2023/08/22 14:21:09;;;;;;;;;;;23.60;76.10;;;;;;5077176;28;19975;-61